sensor_id;sensor_type;location;lat;lon;timestamp;pressure;altitude;pressure_sealevel;temperature
64947;BMP280;51469;52.150;4.682;2023-10-09T00:03:31;102180.97;;;21.34
64947;BMP280;51469;52.150;4.682;2023-10-09T00:05:57;102193.44;;;21.53
64947;BMP280;51469;52.150;4.682;2023-10-09T00:08:23;102201.81;;;21.53
64947;BMP280;51469;52.150;4.682;2023-10-09T00:11:01;102203.41;;;21.54
64947;BMP280;51469;52.150;4.682;2023-10-09T00:13:46;102212.41;;;21.65
64947;BMP280;51469;52.150;4.682;2023-10-09T00:16:17;102205.34;;;21.57
64947;BMP280;51469;52.150;4.682;2023-10-09T00:18:50;102209.88;;;21.74
64947;BMP280;51469;52.150;4.682;2023-10-09T00:21:16;102204.88;;;21.85
64947;BMP280;51469;52.150;4.682;2023-10-09T00:23:41;102201.59;;;21.90
64947;BMP280;51469;52.150;4.682;2023-10-09T00:26:08;102210.69;;;21.97
64947;BMP280;51469;52.150;4.682;2023-10-09T00:28:35;102207.81;;;22.01
64947;BMP280;51469;52.150;4.682;2023-10-09T00:31:03;102201.75;;;22.02
64947;BMP280;51469;52.150;4.682;2023-10-09T00:33:30;102196.84;;;22.10
64947;BMP280;51469;52.150;4.682;2023-10-09T00:35:55;102206.09;;;22.07
64947;BMP280;51469;52.150;4.682;2023-10-09T00:38:20;102198.13;;;22.05
64947;BMP280;51469;52.150;4.682;2023-10-09T00:40:46;102204.88;;;22.08
64947;BMP280;51469;52.150;4.682;2023-10-09T00:43:13;102204.28;;;22.20
64947;BMP280;51469;52.150;4.682;2023-10-09T00:45:40;102196.09;;;22.29
64947;BMP280;51469;52.150;4.682;2023-10-09T00:48:08;102199.28;;;22.31
64947;BMP280;51469;52.150;4.682;2023-10-09T00:50:35;102188.09;;;22.31
64947;BMP280;51469;52.150;4.682;2023-10-09T00:53:01;102180.03;;;22.33
64947;BMP280;51469;52.150;4.682;2023-10-09T00:55:36;102187.16;;;22.37
64947;BMP280;51469;52.150;4.682;2023-10-09T00:58:08;102177.00;;;22.24
64947;BMP280;51469;52.150;4.682;2023-10-09T01:00:39;102180.31;;;22.19
64947;BMP280;51469;52.150;4.682;2023-10-09T01:03:15;102175.00;;;22.24
64947;BMP280;51469;52.150;4.682;2023-10-09T01:05:51;102165.00;;;22.27
64947;BMP280;51469;52.150;4.682;2023-10-09T01:08:24;102164.84;;;22.34
64947;BMP280;51469;52.150;4.682;2023-10-09T01:10:58;102172.03;;;22.35
64947;BMP280;51469;52.150;4.682;2023-10-09T01:13:34;102157.88;;;22.42
64947;BMP280;51469;52.150;4.682;2023-10-09T01:16:16;102159.66;;;22.32
64947;BMP280;51469;52.150;4.682;2023-10-09T01:18:52;102159.97;;;22.38
64947;BMP280;51469;52.150;4.682;2023-10-09T01:21:19;102142.69;;;22.43
64947;BMP280;51469;52.150;4.682;2023-10-09T01:23:49;102133.06;;;22.44
64947;BMP280;51469;52.150;4.682;2023-10-09T01:26:26;102123.97;;;22.40
64947;BMP280;51469;52.150;4.682;2023-10-09T01:28:52;102122.41;;;22.39
64947;BMP280;51469;52.150;4.682;2023-10-09T01:31:26;102119.25;;;22.37
64947;BMP280;51469;52.150;4.682;2023-10-09T01:33:52;102135.28;;;22.33
64947;BMP280;51469;52.150;4.682;2023-10-09T01:36:19;102126.41;;;22.38
64947;BMP280;51469;52.150;4.682;2023-10-09T01:39:02;102141.63;;;22.37
64947;BMP280;51469;52.150;4.682;2023-10-09T01:41:54;102130.00;;;22.38
64947;BMP280;51469;52.150;4.682;2023-10-09T01:44:27;102127.13;;;22.42
64947;BMP280;51469;52.150;4.682;2023-10-09T01:47:00;102129.56;;;22.40
64947;BMP280;51469;52.150;4.682;2023-10-09T01:49:32;102131.50;;;22.43
64947;BMP280;51469;52.150;4.682;2023-10-09T01:51:58;102129.63;;;22.36
64947;BMP280;51469;52.150;4.682;2023-10-09T01:54:36;102123.31;;;22.32
64947;BMP280;51469;52.150;4.682;2023-10-09T01:57:06;102122.19;;;22.30
64947;BMP280;51469;52.150;4.682;2023-10-09T01:59:39;102121.03;;;22.27
64947;BMP280;51469;52.150;4.682;2023-10-09T02:02:12;102114.75;;;22.23
64947;BMP280;51469;52.150;4.682;2023-10-09T02:04:50;102116.22;;;22.28
64947;BMP280;51469;52.150;4.682;2023-10-09T02:07:16;102111.88;;;22.27
64947;BMP280;51469;52.150;4.682;2023-10-09T02:09:47;102104.41;;;22.20
64947;BMP280;51469;52.150;4.682;2023-10-09T02:12:13;102096.28;;;22.26
64947;BMP280;51469;52.150;4.682;2023-10-09T02:14:38;102097.91;;;22.27
64947;BMP280;51469;52.150;4.682;2023-10-09T02:17:07;102093.00;;;22.31
64947;BMP280;51469;52.150;4.682;2023-10-09T02:19:44;102097.72;;;22.34
64947;BMP280;51469;52.150;4.682;2023-10-09T02:22:13;102095.28;;;22.36
64947;BMP280;51469;52.150;4.682;2023-10-09T02:24:41;102094.78;;;22.41
64947;BMP280;51469;52.150;4.682;2023-10-09T02:27:17;102097.09;;;22.46
64947;BMP280;51469;52.150;4.682;2023-10-09T02:30:06;102103.56;;;22.59
64947;BMP280;51469;52.150;4.682;2023-10-09T02:32:44;102103.56;;;22.59
64947;BMP280;51469;52.150;4.682;2023-10-09T02:35:13;102103.56;;;22.59
64947;BMP280;51469;52.150;4.682;2023-10-09T02:38:01;102095.56;;;22.61
64947;BMP280;51469;52.150;4.682;2023-10-09T02:40:29;102095.56;;;22.61
64947;BMP280;51469;52.150;4.682;2023-10-09T02:42:58;102096.69;;;22.63
64947;BMP280;51469;52.150;4.682;2023-10-09T02:45:24;102084.78;;;22.59
64947;BMP280;51469;52.150;4.682;2023-10-09T02:47:50;102088.38;;;22.60
64947;BMP280;51469;52.150;4.682;2023-10-09T02:50:16;102085.50;;;22.63
64947;BMP280;51469;52.150;4.682;2023-10-09T02:52:47;102072.28;;;22.64
64947;BMP280;51469;52.150;4.682;2023-10-09T02:55:13;102081.91;;;22.63
64947;BMP280;51469;52.150;4.682;2023-10-09T02:57:55;102077.09;;;22.63
64947;BMP280;51469;52.150;4.682;2023-10-09T03:00:31;102075.53;;;22.62
64947;BMP280;51469;52.150;4.682;2023-10-09T03:02:57;102065.63;;;22.58
64947;BMP280;51469;52.150;4.682;2023-10-09T03:05:24;102070.53;;;22.70
64947;BMP280;51469;52.150;4.682;2023-10-09T03:07:53;102074.53;;;22.72
64947;BMP280;51469;52.150;4.682;2023-10-09T03:10:18;102067.44;;;22.68
64947;BMP280;51469;52.150;4.682;2023-10-09T03:12:44;102064.09;;;22.73
64947;BMP280;51469;52.150;4.682;2023-10-09T03:15:09;102060.94;;;22.71
64947;BMP280;51469;52.150;4.682;2023-10-09T03:17:36;102054.63;;;22.67
64947;BMP280;51469;52.150;4.682;2023-10-09T03:20:05;102042.94;;;22.72
64947;BMP280;51469;52.150;4.682;2023-10-09T03:22:40;102059.81;;;22.84
64947;BMP280;51469;52.150;4.682;2023-10-09T03:25:06;102066.28;;;22.81
64947;BMP280;51469;52.150;4.682;2023-10-09T03:27:39;102066.38;;;22.78
64947;BMP280;51469;52.150;4.682;2023-10-09T03:30:08;102105.38;;;22.84
64947;BMP280;51469;52.150;4.682;2023-10-09T03:32:35;102124.16;;;23.03
64947;BMP280;51469;52.150;4.682;2023-10-09T03:35:00;102112.22;;;22.99
64947;BMP280;51469;52.150;4.682;2023-10-09T03:37:28;102110.69;;;23.14
64947;BMP280;51469;52.150;4.682;2023-10-09T03:40:04;102109.78;;;23.17
64947;BMP280;51469;52.150;4.682;2023-10-09T03:42:32;102102.63;;;23.16
64947;BMP280;51469;52.150;4.682;2023-10-09T03:45:01;102106.91;;;23.21
64947;BMP280;51469;52.150;4.682;2023-10-09T03:47:30;102103.50;;;23.29
64947;BMP280;51469;52.150;4.682;2023-10-09T03:49:56;102088.19;;;23.34
64947;BMP280;51469;52.150;4.682;2023-10-09T03:52:22;102086.88;;;23.22
64947;BMP280;51469;52.150;4.682;2023-10-09T03:54:50;102082.75;;;23.27
64947;BMP280;51469;52.150;4.682;2023-10-09T03:57:16;102084.78;;;23.26
64947;BMP280;51469;52.150;4.682;2023-10-09T03:59:45;102085.72;;;23.36
64947;BMP280;51469;52.150;4.682;2023-10-09T04:02:13;102088.59;;;23.48
64947;BMP280;51469;52.150;4.682;2023-10-09T04:04:38;102086.16;;;23.50
64947;BMP280;51469;52.150;4.682;2023-10-09T04:07:03;102091.38;;;23.48
64947;BMP280;51469;52.150;4.682;2023-10-09T04:09:28;102092.66;;;23.47
64947;BMP280;51469;52.150;4.682;2023-10-09T04:12:01;102082.47;;;23.53
64947;BMP280;51469;52.150;4.682;2023-10-09T04:14:38;102085.63;;;23.55
64947;BMP280;51469;52.150;4.682;2023-10-09T04:17:39;102073.19;;;23.56
64947;BMP280;51469;52.150;4.682;2023-10-09T04:20:08;102063.22;;;23.55
64947;BMP280;51469;52.150;4.682;2023-10-09T04:22:59;102068.66;;;23.46
64947;BMP280;51469;52.150;4.682;2023-10-09T04:25:29;102066.78;;;23.56
64947;BMP280;51469;52.150;4.682;2023-10-09T04:28:06;102070.72;;;23.58
64947;BMP280;51469;52.150;4.682;2023-10-09T04:30:38;102073.44;;;23.62
64947;BMP280;51469;52.150;4.682;2023-10-09T04:33:14;102066.78;;;23.56
64947;BMP280;51469;52.150;4.682;2023-10-09T04:36:05;102079.66;;;23.53
64947;BMP280;51469;52.150;4.682;2023-10-09T04:38:46;102075.47;;;23.61
64947;BMP280;51469;52.150;4.682;2023-10-09T04:41:40;102089.34;;;23.65
64947;BMP280;51469;52.150;4.682;2023-10-09T04:44:08;102082.72;;;23.59
64947;BMP280;51469;52.150;4.682;2023-10-09T04:46:43;102075.47;;;23.61
64947;BMP280;51469;52.150;4.682;2023-10-09T04:49:12;102072.97;;;23.63
64947;BMP280;51469;52.150;4.682;2023-10-09T04:51:53;102077.03;;;23.62
64947;BMP280;51469;52.150;4.682;2023-10-09T04:54:34;102084.50;;;23.53
64947;BMP280;51469;52.150;4.682;2023-10-09T04:57:26;102077.22;;;23.55
64947;BMP280;51469;52.150;4.682;2023-10-09T04:59:51;102104.56;;;23.51
64947;BMP280;51469;52.150;4.682;2023-10-09T05:02:17;102108.81;;;23.56
64947;BMP280;51469;52.150;4.682;2023-10-09T05:04:48;102102.78;;;23.57
64947;BMP280;51469;52.150;4.682;2023-10-09T05:07:33;102117.81;;;23.63
64947;BMP280;51469;52.150;4.682;2023-10-09T05:10:17;102114.50;;;23.52
64947;BMP280;51469;52.150;4.682;2023-10-09T05:12:45;102112.13;;;23.67
64947;BMP280;51469;52.150;4.682;2023-10-09T05:15:24;102107.50;;;23.60
64947;BMP280;51469;52.150;4.682;2023-10-09T05:17:57;102117.81;;;23.63
64947;BMP280;51469;52.150;4.682;2023-10-09T05:20:23;102129.16;;;23.60
64947;BMP280;51469;52.150;4.682;2023-10-09T05:22:51;102126.88;;;23.55
64947;BMP280;51469;52.150;4.682;2023-10-09T05:25:27;102146.03;;;23.56
64947;BMP280;51469;52.150;4.682;2023-10-09T05:28:11;102133.50;;;23.61
64947;BMP280;51469;52.150;4.682;2023-10-09T05:30:51;102128.72;;;23.61
64947;BMP280;51469;52.150;4.682;2023-10-09T05:33:28;102130.63;;;23.64
64947;BMP280;51469;52.150;4.682;2023-10-09T05:35:54;102120.81;;;23.72
64947;BMP280;51469;52.150;4.682;2023-10-09T05:38:51;102106.41;;;23.70
64947;BMP280;51469;52.150;4.682;2023-10-09T05:41:36;102080.31;;;23.73
64947;BMP280;51469;52.150;4.682;2023-10-09T05:44:17;102085.53;;;23.59
64947;BMP280;51469;52.150;4.682;2023-10-09T05:47:01;102084.81;;;23.71
64947;BMP280;51469;52.150;4.682;2023-10-09T05:49:46;102070.53;;;23.65
64947;BMP280;51469;52.150;4.682;2023-10-09T05:52:12;102078.59;;;23.63
64947;BMP280;51469;52.150;4.682;2023-10-09T05:54:56;102074.75;;;23.57
64947;BMP280;51469;52.150;4.682;2023-10-09T05:57:40;102082.28;;;23.60
64947;BMP280;51469;52.150;4.682;2023-10-09T06:00:25;102072.84;;;23.54
64947;BMP280;51469;52.150;4.682;2023-10-09T06:03:10;102074.75;;;23.57
64947;BMP280;51469;52.150;4.682;2023-10-09T06:05:48;102081.25;;;23.54
64947;BMP280;51469;52.150;4.682;2023-10-09T06:08:30;102067.69;;;23.53
64947;BMP280;51469;52.150;4.682;2023-10-09T06:11:11;102053.41;;;23.47
64947;BMP280;51469;52.150;4.682;2023-10-09T06:14:12;102089.84;;;23.47
64947;BMP280;51469;52.150;4.682;2023-10-09T06:16:39;102090.88;;;23.53
64947;BMP280;51469;52.150;4.682;2023-10-09T06:19:24;102093.16;;;23.58
64947;BMP280;51469;52.150;4.682;2023-10-09T06:22:06;102104.78;;;23.57
64947;BMP280;51469;52.150;4.682;2023-10-09T06:24:37;102110.06;;;23.55
64947;BMP280;51469;52.150;4.682;2023-10-09T06:27:35;102120.75;;;23.60
64947;BMP280;51469;52.150;4.682;2023-10-09T06:30:01;102129.41;;;23.65
64947;BMP280;51469;52.150;4.682;2023-10-09T06:32:48;102134.63;;;23.63
64947;BMP280;51469;52.150;4.682;2023-10-09T06:35:17;102135.50;;;23.60
64947;BMP280;51469;52.150;4.682;2023-10-09T06:37:56;102143.22;;;23.72
64947;BMP280;51469;52.150;4.682;2023-10-09T06:43:07;102145.84;;;23.79
64947;BMP280;51469;52.150;4.682;2023-10-09T06:45:45;102143.03;;;23.79
64947;BMP280;51469;52.150;4.682;2023-10-09T06:48:14;102144.69;;;23.77
64947;BMP280;51469;52.150;4.682;2023-10-09T06:51:01;102132.00;;;23.72
64947;BMP280;51469;52.150;4.682;2023-10-09T06:53:41;102123.06;;;23.77
64947;BMP280;51469;52.150;4.682;2023-10-09T06:56:19;102130.00;;;23.73
64947;BMP280;51469;52.150;4.682;2023-10-09T06:59:04;102137.63;;;23.72
64947;BMP280;51469;52.150;4.682;2023-10-09T07:01:39;102124.84;;;23.71
64947;BMP280;51469;52.150;4.682;2023-10-09T07:04:11;102108.03;;;23.71
64947;BMP280;51469;52.150;4.682;2023-10-09T07:06:55;102071.25;;;23.69
64947;BMP280;51469;52.150;4.682;2023-10-09T07:09:21;102053.16;;;23.70
64947;BMP280;51469;52.150;4.682;2023-10-09T07:11:49;102056.78;;;23.71
64947;BMP280;51469;52.150;4.682;2023-10-09T07:14:17;102060.69;;;23.73
64947;BMP280;51469;52.150;4.682;2023-10-09T07:17:04;102061.41;;;23.77
64947;BMP280;51469;52.150;4.682;2023-10-09T07:19:43;102050.09;;;23.81
64947;BMP280;51469;52.150;4.682;2023-10-09T07:22:12;102077.16;;;23.87
64947;BMP280;51469;52.150;4.682;2023-10-09T07:24:47;102092.19;;;23.93
64947;BMP280;51469;52.150;4.682;2023-10-09T07:27:30;102069.66;;;23.97
64947;BMP280;51469;52.150;4.682;2023-10-09T07:30:10;102065.75;;;24.07
64947;BMP280;51469;52.150;4.682;2023-10-09T07:33:04;102067.91;;;24.15
64947;BMP280;51469;52.150;4.682;2023-10-09T07:35:37;102065.56;;;24.26
64947;BMP280;51469;52.150;4.682;2023-10-09T07:38:27;102078.38;;;24.27
64947;BMP280;51469;52.150;4.682;2023-10-09T07:41:00;102081.97;;;24.40
64947;BMP280;51469;52.150;4.682;2023-10-09T07:43:36;102088.00;;;24.26
64947;BMP280;51469;52.150;4.682;2023-10-09T07:46:05;102102.84;;;24.39
64947;BMP280;51469;52.150;4.682;2023-10-09T07:48:49;102114.09;;;24.39
64947;BMP280;51469;52.150;4.682;2023-10-09T07:51:18;102122.72;;;24.45
64947;BMP280;51469;52.150;4.682;2023-10-09T07:53:52;102127.34;;;24.51
64947;BMP280;51469;52.150;4.682;2023-10-09T07:56:38;102120.16;;;24.50
64947;BMP280;51469;52.150;4.682;2023-10-09T07:59:07;102114.88;;;24.52
64947;BMP280;51469;52.150;4.682;2023-10-09T08:01:40;102116.13;;;24.51
64947;BMP280;51469;52.150;4.682;2023-10-09T08:04:23;102126.63;;;24.47
64947;BMP280;51469;52.150;4.682;2023-10-09T08:07:10;102133.47;;;24.34
64947;BMP280;51469;52.150;4.682;2023-10-09T08:09:44;102141.91;;;24.46
64947;BMP280;51469;52.150;4.682;2023-10-09T08:12:36;102150.09;;;24.41
64947;BMP280;51469;52.150;4.682;2023-10-09T08:15:20;102155.75;;;24.53
64947;BMP280;51469;52.150;4.682;2023-10-09T08:17:51;102163.94;;;24.60
64947;BMP280;51469;52.150;4.682;2023-10-09T08:20:26;102171.59;;;24.72
64947;BMP280;51469;52.150;4.682;2023-10-09T08:22:53;102177.09;;;24.76
64947;BMP280;51469;52.150;4.682;2023-10-09T08:25:21;102167.34;;;24.80
64947;BMP280;51469;52.150;4.682;2023-10-09T08:27:58;102174.66;;;24.90
64947;BMP280;51469;52.150;4.682;2023-10-09T08:30:25;102181.59;;;24.98
64947;BMP280;51469;52.150;4.682;2023-10-09T08:32:51;102173.19;;;24.98
64947;BMP280;51469;52.150;4.682;2023-10-09T08:35:32;102192.41;;;25.12
64947;BMP280;51469;52.150;4.682;2023-10-09T08:38:12;102199.59;;;25.26
64947;BMP280;51469;52.150;4.682;2023-10-09T08:40:40;102203.28;;;25.35
64947;BMP280;51469;52.150;4.682;2023-10-09T08:45:37;102200.38;;;25.39
64947;BMP280;51469;52.150;4.682;2023-10-09T08:48:08;102209.34;;;25.46
64947;BMP280;51469;52.150;4.682;2023-10-09T08:50:35;102211.34;;;25.58
64947;BMP280;51469;52.150;4.682;2023-10-09T08:53:01;102195.63;;;25.48
64947;BMP280;51469;52.150;4.682;2023-10-09T08:55:28;102211.13;;;25.65
64947;BMP280;51469;52.150;4.682;2023-10-09T08:57:54;102200.63;;;25.65
64947;BMP280;51469;52.150;4.682;2023-10-09T09:00:22;102211.78;;;25.69
64947;BMP280;51469;52.150;4.682;2023-10-09T09:02:52;102205.22;;;25.72
64947;BMP280;51469;52.150;4.682;2023-10-09T09:05:21;102224.91;;;25.72
64947;BMP280;51469;52.150;4.682;2023-10-09T09:07:47;102223.56;;;25.76
64947;BMP280;51469;52.150;4.682;2023-10-09T09:10:15;102229.72;;;25.84
64947;BMP280;51469;52.150;4.682;2023-10-09T09:12:47;102226.69;;;25.78
64947;BMP280;51469;52.150;4.682;2023-10-09T09:15:19;102229.38;;;25.82
64947;BMP280;51469;52.150;4.682;2023-10-09T09:17:49;102227.00;;;25.93
64947;BMP280;51469;52.150;4.682;2023-10-09T09:20:26;102222.25;;;25.90
64947;BMP280;51469;52.150;4.682;2023-10-09T09:22:58;102215.84;;;26.02
64947;BMP280;51469;52.150;4.682;2023-10-09T09:25:24;102214.06;;;25.95
64947;BMP280;51469;52.150;4.682;2023-10-09T09:27:50;102217.09;;;26.01
64947;BMP280;51469;52.150;4.682;2023-10-09T09:30:28;102213.56;;;26.09
64947;BMP280;51469;52.150;4.682;2023-10-09T09:36:05;102219.44;;;26.24
64947;BMP280;51469;52.150;4.682;2023-10-09T09:38:34;102224.84;;;26.31
64947;BMP280;51469;52.150;4.682;2023-10-09T09:41:16;102202.69;;;25.99
64947;BMP280;51469;52.150;4.682;2023-10-09T09:43:56;102217.22;;;26.19
64947;BMP280;51469;52.150;4.682;2023-10-09T09:46:25;102214.75;;;26.21
64947;BMP280;51469;52.150;4.682;2023-10-09T09:49:01;102215.13;;;26.10
64947;BMP280;51469;52.150;4.682;2023-10-09T09:51:30;102211.22;;;26.08
64947;BMP280;51469;52.150;4.682;2023-10-09T09:53:55;102208.91;;;26.15
64947;BMP280;51469;52.150;4.682;2023-10-09T09:56:25;102200.56;;;26.12
64947;BMP280;51469;52.150;4.682;2023-10-09T09:58:51;102209.47;;;25.89
64947;BMP280;51469;52.150;4.682;2023-10-09T10:01:26;102218.84;;;26.07
64947;BMP280;51469;52.150;4.682;2023-10-09T10:04:02;102223.22;;;26.08
64947;BMP280;51469;52.150;4.682;2023-10-09T10:06:32;102219.38;;;26.15
64947;BMP280;51469;52.150;4.682;2023-10-09T10:08:59;102222.59;;;26.26
64947;BMP280;51469;52.150;4.682;2023-10-09T10:11:46;102215.13;;;26.32
64947;BMP280;51469;52.150;4.682;2023-10-09T10:14:12;102217.63;;;26.30
64947;BMP280;51469;52.150;4.682;2023-10-09T10:17:02;102223.00;;;26.37
64947;BMP280;51469;52.150;4.682;2023-10-09T10:19:59;102227.19;;;26.32
64947;BMP280;51469;52.150;4.682;2023-10-09T10:22:44;102223.63;;;26.41
64947;BMP280;51469;52.150;4.682;2023-10-09T10:28:22;102239.03;;;26.79
64947;BMP280;51469;52.150;4.682;2023-10-09T10:30:54;102224.75;;;26.74
64947;BMP280;51469;52.150;4.682;2023-10-09T10:33:20;102226.13;;;26.91
64947;BMP280;51469;52.150;4.682;2023-10-09T10:35:48;102232.72;;;26.97
64947;BMP280;51469;52.150;4.682;2023-10-09T10:38:32;102229.88;;;26.88
64947;BMP280;51469;52.150;4.682;2023-10-09T10:41:15;102240.19;;;26.91
64947;BMP280;51469;52.150;4.682;2023-10-09T10:43:45;102235.56;;;27.06
64947;BMP280;51469;52.150;4.682;2023-10-09T10:46:21;102242.16;;;27.12
64947;BMP280;51469;52.150;4.682;2023-10-09T10:48:56;102231.19;;;27.05
64947;BMP280;51469;52.150;4.682;2023-10-09T10:51:34;102234.00;;;27.05
64947;BMP280;51469;52.150;4.682;2023-10-09T10:54:08;102229.63;;;27.13
64947;BMP280;51469;52.150;4.682;2023-10-09T10:56:52;102233.34;;;27.01
64947;BMP280;51469;52.150;4.682;2023-10-09T10:59:19;102231.81;;;27.00
64947;BMP280;51469;52.150;4.682;2023-10-09T11:01:52;102224.94;;;27.10
64947;BMP280;51469;52.150;4.682;2023-10-09T11:04:28;102239.66;;;27.05
64947;BMP280;51469;52.150;4.682;2023-10-09T11:07:00;102236.50;;;27.03
64947;BMP280;51469;52.150;4.682;2023-10-09T11:09:55;102237.78;;;27.11
64947;BMP280;51469;52.150;4.682;2023-10-09T11:12:25;102241.13;;;27.27
64947;BMP280;51469;52.150;4.682;2023-10-09T11:15:01;102239.75;;;27.41
64947;BMP280;51469;52.150;4.682;2023-10-09T11:20:34;102233.03;;;27.47
64947;BMP280;51469;52.150;4.682;2023-10-09T11:23:00;102229.31;;;27.59
64947;BMP280;51469;52.150;4.682;2023-10-09T11:25:45;102238.25;;;27.75
64947;BMP280;51469;52.150;4.682;2023-10-09T11:28:22;102226.97;;;27.75
64947;BMP280;51469;52.150;4.682;2023-10-09T11:31:11;102218.66;;;27.63
64947;BMP280;51469;52.150;4.682;2023-10-09T11:33:47;102237.88;;;27.47
64947;BMP280;51469;52.150;4.682;2023-10-09T11:36:20;102237.88;;;27.47
64947;BMP280;51469;52.150;4.682;2023-10-09T11:38:56;102244.69;;;27.19
64947;BMP280;51469;52.150;4.682;2023-10-09T11:41:42;102233.13;;;27.26
64947;BMP280;51469;52.150;4.682;2023-10-09T11:44:08;102223.13;;;26.94
64947;BMP280;51469;52.150;4.682;2023-10-09T11:46:59;102227.44;;;27.08
64947;BMP280;51469;52.150;4.682;2023-10-09T11:49:54;102228.56;;;27.19
64947;BMP280;51469;52.150;4.682;2023-10-09T11:52:26;102232.75;;;27.06
64947;BMP280;51469;52.150;4.682;2023-10-09T11:54:58;102230.94;;;27.21
64947;BMP280;51469;52.150;4.682;2023-10-09T11:57:25;102231.25;;;27.32
64947;BMP280;51469;52.150;4.682;2023-10-09T12:00:03;102212.59;;;27.25
64947;BMP280;51469;52.150;4.682;2023-10-09T12:02:52;102223.72;;;27.20
64947;BMP280;51469;52.150;4.682;2023-10-09T12:05:17;102218.72;;;27.24
64947;BMP280;51469;52.150;4.682;2023-10-09T12:07:47;102219.00;;;27.17
64947;BMP280;51469;52.150;4.682;2023-10-09T12:10:21;102224.94;;;27.10
64947;BMP280;51469;52.150;4.682;2023-10-09T12:12:54;102226.22;;;27.18
64947;BMP280;51469;52.150;4.682;2023-10-09T12:15:23;102227.22;;;27.33
64947;BMP280;51469;52.150;4.682;2023-10-09T12:17:49;102222.78;;;27.23
64947;BMP280;51469;52.150;4.682;2023-10-09T12:20:17;102229.44;;;26.68
64947;BMP280;51469;52.150;4.682;2023-10-09T12:23:04;102223.06;;;26.76
64947;BMP280;51469;52.150;4.682;2023-10-09T12:25:30;102238.94;;;26.92
64947;BMP280;51469;52.150;4.682;2023-10-09T12:27:57;102223.41;;;26.78
64947;BMP280;51469;52.150;4.682;2023-10-09T12:30:23;102230.44;;;26.83
64947;BMP280;51469;52.150;4.682;2023-10-09T12:33:01;102238.63;;;26.90
64947;BMP280;51469;52.150;4.682;2023-10-09T12:35:26;102220.66;;;26.96
64947;BMP280;51469;52.150;4.682;2023-10-09T12:37:53;102228.00;;;26.94
64947;BMP280;51469;52.150;4.682;2023-10-09T12:40:23;102226.22;;;27.18
64947;BMP280;51469;52.150;4.682;2023-10-09T12:42:56;102221.44;;;27.36
64947;BMP280;51469;52.150;4.682;2023-10-09T12:45:27;102219.66;;;27.30
64947;BMP280;51469;52.150;4.682;2023-10-09T12:47:53;102219.06;;;27.52
64947;BMP280;51469;52.150;4.682;2023-10-09T12:50:27;102221.97;;;27.70
64947;BMP280;51469;52.150;4.682;2023-10-09T12:52:59;102229.72;;;27.31
64947;BMP280;51469;52.150;4.682;2023-10-09T12:55:30;102224.63;;;27.17
64947;BMP280;51469;52.150;4.682;2023-10-09T12:58:00;102221.13;;;27.04
64947;BMP280;51469;52.150;4.682;2023-10-09T13:00:32;102219.13;;;27.13
64947;BMP280;51469;52.150;4.682;2023-10-09T13:02:57;102230.13;;;27.20
64947;BMP280;51469;52.150;4.682;2023-10-09T13:05:26;102223.47;;;27.36
64947;BMP280;51469;52.150;4.682;2023-10-09T13:07:52;102215.31;;;27.47
64947;BMP280;51469;52.150;4.682;2023-10-09T13:10:19;102215.97;;;27.51
64947;BMP280;51469;52.150;4.682;2023-10-09T13:12:44;102219.72;;;27.57
64947;BMP280;51469;52.150;4.682;2023-10-09T13:15:11;102230.69;;;27.46
64947;BMP280;51469;52.150;4.682;2023-10-09T13:17:37;102227.22;;;27.33
64947;BMP280;51469;52.150;4.682;2023-10-09T13:20:03;102232.53;;;27.40
64947;BMP280;51469;52.150;4.682;2023-10-09T13:22:42;102230.25;;;27.08
64947;BMP280;51469;52.150;4.682;2023-10-09T13:25:10;102232.81;;;27.15
64947;BMP280;51469;52.150;4.682;2023-10-09T13:27:44;102233.25;;;27.22
64947;BMP280;51469;52.150;4.682;2023-10-09T13:30:19;102226.53;;;27.20
64947;BMP280;51469;52.150;4.682;2023-10-09T13:32:49;102223.41;;;27.27
64947;BMP280;51469;52.150;4.682;2023-10-09T13:35:18;102216.19;;;27.17
64947;BMP280;51469;52.150;4.682;2023-10-09T13:37:47;102219.66;;;27.21
64947;BMP280;51469;52.150;4.682;2023-10-09T13:40:20;102215.72;;;27.18
64947;BMP280;51469;52.150;4.682;2023-10-09T13:42:53;102213.09;;;27.24
64947;BMP280;51469;52.150;4.682;2023-10-09T13:45:24;102218.13;;;27.38
64947;BMP280;51469;52.150;4.682;2023-10-09T13:47:53;102217.78;;;27.27
64947;BMP280;51469;52.150;4.682;2023-10-09T13:50:20;102223.16;;;27.34
64947;BMP280;51469;52.150;4.682;2023-10-09T13:52:47;102219.38;;;27.28
64947;BMP280;51469;52.150;4.682;2023-10-09T13:55:12;102225.16;;;27.24
64947;BMP280;51469;52.150;4.682;2023-10-09T13:57:41;102222.13;;;27.19
64947;BMP280;51469;52.150;4.682;2023-10-09T14:00:14;102223.00;;;26.98
64947;BMP280;51469;52.150;4.682;2023-10-09T14:02:44;102221.81;;;27.08
64947;BMP280;51469;52.150;4.682;2023-10-09T14:05:11;102220.41;;;27.03
64947;BMP280;51469;52.150;4.682;2023-10-09T14:07:37;102226.63;;;27.07
64947;BMP280;51469;52.150;4.682;2023-10-09T14:10:03;102226.81;;;27.13
64947;BMP280;51469;52.150;4.682;2023-10-09T14:12:51;102218.63;;;26.97
64947;BMP280;51469;52.150;4.682;2023-10-09T14:15:19;102225.78;;;26.89
64947;BMP280;51469;52.150;4.682;2023-10-09T14:17:44;102217.44;;;26.85
64947;BMP280;51469;52.150;4.682;2023-10-09T14:20:12;102221.34;;;26.79
64947;BMP280;51469;52.150;4.682;2023-10-09T14:22:58;102218.88;;;26.81
64947;BMP280;51469;52.150;4.682;2023-10-09T14:25:31;102221.31;;;26.70
64947;BMP280;51469;52.150;4.682;2023-10-09T14:27:56;102216.94;;;26.69
64947;BMP280;51469;52.150;4.682;2023-10-09T14:30:23;102220.19;;;26.67
64947;BMP280;51469;52.150;4.682;2023-10-09T14:32:56;102220.72;;;26.75
64947;BMP280;51469;52.150;4.682;2023-10-09T14:35:22;102216.97;;;26.78
64947;BMP280;51469;52.150;4.682;2023-10-09T14:37:52;102228.91;;;26.60
64947;BMP280;51469;52.150;4.682;2023-10-09T14:40:18;102221.84;;;26.56
64947;BMP280;51469;52.150;4.682;2023-10-09T14:42:55;102226.44;;;26.41
64947;BMP280;51469;52.150;4.682;2023-10-09T14:45:24;102226.38;;;26.32
64947;BMP280;51469;52.150;4.682;2023-10-09T14:47:52;102225.53;;;25.88